Time;durP1;ratioP1;P1;durP2;ratioP2;P2;SDS_P1;SDS_P2;PMS_P1;PMS_P2;Temp;Humidity;BMP_temperature;BMP_pressure;BME280_temperature;BME280_humidity;BME280_pressure;Samples;Min_cycle;Max_cycle;Signal;HPM_P1;HPM_P2
2023/04/15 00:00:33;;;;;;;;;;;;;;;10.52;72.67;99689.14;102556;278;105326;-56
2023/04/15 00:03:18;;;;;;;;;;;;;;;10.53;72.79;99685.98;102535;278;114151;-57
2023/04/15 00:05:54;;;;;;;;;;;;;;;10.55;72.67;99690.56;102476;278;96174;-56
2023/04/15 00:08:27;;;;;;;;;;;;;;;10.59;72.40;99688.29;102504;277;98429;-56
2023/04/15 00:11:05;;;;;;;;;;;;;;;10.61;72.50;99690.56;102638;277;119850;-54
2023/04/15 00:13:44;;;;;;;;;;;;;;;10.65;72.68;99687.57;102734;277;104434;-56
2023/04/15 00:16:19;;;;;;;;;;;;;;;10.61;72.83;99690.02;102488;277;113147;-56
2023/04/15 00:18:57;;;;;;;;;;;;;;;10.59;73.17;99686.61;102576;277;95150;-56
2023/04/15 00:21:31;;;;;;;;;;;;;;;10.55;73.33;99690.73;102545;278;95448;-55
2023/04/15 00:24:04;;;;;;;;;;;;;;;10.50;73.38;99693.16;102543;277;120426;-55
2023/04/15 00:26:42;;;;;;;;;;;;;;;10.48;73.41;99689.02;102569;277;105939;-55
2023/04/15 00:29:16;;;;;;;;;;;;;;;10.49;73.17;99685.07;102498;277;114183;-55
2023/04/15 00:31:50;;;;;;;;;;;;;;;10.50;72.91;99681.04;102476;266;97296;-56
2023/04/15 00:34:27;;;;;;;;;;;;;;;10.53;73.05;99684.20;102554;277;96251;-56
2023/04/15 00:37:04;;;;;;;;;;;;;;;10.49;74.00;99685.41;102515;277;121086;-58
2023/04/15 00:39:42;;;;;;;;;;;;;;;10.46;73.83;99682.07;102565;277;105907;-57
2023/04/15 00:42:20;;;;;;;;;;;;;;;10.44;74.04;99683.85;102567;277;114833;-59
2023/04/15 00:44:57;;;;;;;;;;;;;;;10.39;74.45;99684.31;102538;277;97430;-58
2023/04/15 00:47:40;;;;;;;;;;;;;;;10.30;74.71;99684.25;102564;277;97256;-57
2023/04/15 00:50:17;;;;;;;;;;;;;;;10.21;75.26;99677.05;102534;278;120089;-58
2023/04/15 00:52:51;;;;;;;;;;;;;;;10.16;75.27;99681.81;102536;277;105329;-56
2023/04/15 00:55:25;;;;;;;;;;;;;;;10.16;75.54;99678.32;102544;277;113712;-57
2023/04/15 00:58:04;;;;;;;;;;;;;;;10.18;75.44;99676.75;102473;277;96389;-54
2023/04/15 01:00:42;;;;;;;;;;;;;;;10.20;75.65;99685.92;102516;277;97991;-55
2023/04/15 01:03:18;;;;;;;;;;;;;;;10.18;76.31;99682.11;102414;277;121497;-55
2023/04/15 01:05:51;;;;;;;;;;;;;;;10.16;76.98;99682.98;102638;277;104571;-56
2023/04/15 01:08:26;;;;;;;;;;;;;;;10.12;76.88;99680.23;102556;278;114103;-56
2023/04/15 01:11:02;;;;;;;;;;;;;;;10.08;76.76;99677.23;102599;277;96376;-58
2023/04/15 01:13:39;;;;;;;;;;;;;;;10.11;76.60;99678.74;102595;278;96880;-58
2023/04/15 01:16:18;;;;;;;;;;;;;;;10.08;76.67;99677.60;102559;278;120740;-57
2023/04/15 01:18:55;;;;;;;;;;;;;;;10.11;76.51;99674.55;102607;278;105425;-56
2023/04/15 01:21:29;;;;;;;;;;;;;;;10.14;76.68;99671.86;102595;278;114467;-58
2023/04/15 01:24:11;;;;;;;;;;;;;;;10.15;76.72;99672.26;102606;278;95643;-58
2023/04/15 01:26:49;;;;;;;;;;;;;;;10.14;76.84;99675.60;102681;277;98041;-55
2023/04/15 01:29:27;;;;;;;;;;;;;;;10.15;76.62;99679.31;102242;278;121297;-56
2023/04/15 01:32:08;;;;;;;;;;;;;;;10.13;76.95;99677.03;102585;278;105664;-56
2023/04/15 01:34:44;;;;;;;;;;;;;;;10.10;77.41;99682.05;102605;278;114495;-55
2023/04/15 01:37:18;;;;;;;;;;;;;;;10.02;77.49;99678.46;102571;277;96050;-56
2023/04/15 01:39:58;;;;;;;;;;;;;;;10.00;77.42;99677.55;102610;278;96980;-56
2023/04/15 01:42:31;;;;;;;;;;;;;;;9.96;78.15;99679.23;102593;278;120471;-58
2023/04/15 01:45:05;;;;;;;;;;;;;;;9.89;78.86;99677.67;102582;278;105929;-56
2023/04/15 01:47:40;;;;;;;;;;;;;;;9.87;78.84;99678.25;102582;278;115196;-55
2023/04/15 01:50:14;;;;;;;;;;;;;;;9.88;78.75;99674.71;102529;277;96518;-55
2023/04/15 01:52:49;;;;;;;;;;;;;;;9.85;78.87;99674.74;102590;277;95956;-55
2023/04/15 01:55:29;;;;;;;;;;;;;;;9.81;79.48;99679.09;102641;277;119830;-56
2023/04/15 01:58:08;;;;;;;;;;;;;;;9.73;80.04;99679.70;102620;266;106008;-59
2023/04/15 02:00:43;;;;;;;;;;;;;;;9.73;80.51;99685.41;102578;277;113971;-60
2023/04/15 02:03:23;;;;;;;;;;;;;;;9.65;80.51;99681.19;102592;278;96298;-60
2023/04/15 02:05:57;;;;;;;;;;;;;;;9.69;81.18;99681.76;102645;278;96678;-59
2023/04/15 02:08:31;;;;;;;;;;;;;;;9.66;80.91;99685.45;102643;278;120705;-59
2023/04/15 02:11:10;;;;;;;;;;;;;;;9.64;82.02;99682.13;102650;278;105780;-58
2023/04/15 02:13:51;;;;;;;;;;;;;;;9.62;82.19;99683.28;102534;278;115288;-58
2023/04/15 02:16:32;;;;;;;;;;;;;;;9.57;82.37;99677.25;102606;278;95766;-56
2023/04/15 02:19:09;;;;;;;;;;;;;;;9.53;82.34;99678.48;102562;278;98111;-56
2023/04/15 02:21:46;;;;;;;;;;;;;;;9.56;82.06;99673.92;102627;278;120303;-56
2023/04/15 02:24:24;;;;;;;;;;;;;;;9.58;82.73;99673.06;102507;276;106328;-56
2023/04/15 02:27:02;;;;;;;;;;;;;;;9.62;82.33;99671.25;102530;277;114635;-56
2023/04/15 02:29:37;;;;;;;;;;;;;;;9.61;82.56;99674.27;102567;277;97098;-55
2023/04/15 02:32:12;;;;;;;;;;;;;;;9.55;82.95;99675.66;102651;277;97505;-59
2023/04/15 02:34:47;;;;;;;;;;;;;;;9.53;83.73;99680.50;102557;278;120813;-57
2023/04/15 02:37:23;;;;;;;;;;;;;;;9.46;83.43;99679.98;102560;278;106206;-56
2023/04/15 02:39:58;;;;;;;;;;;;;;;9.47;83.50;99680.70;102573;266;114264;-56
2023/04/15 02:42:37;;;;;;;;;;;;;;;9.49;83.88;99674.69;102582;278;96750;-58
2023/04/15 02:45:11;;;;;;;;;;;;;;;9.48;83.55;99671.40;102607;278;97872;-59
2023/04/15 02:47:47;;;;;;;;;;;;;;;9.45;83.58;99677.02;102607;278;119154;-58
2023/04/15 02:50:26;;;;;;;;;;;;;;;9.48;83.77;99671.20;102588;278;106072;-59
2023/04/15 02:53:03;;;;;;;;;;;;;;;9.52;83.83;99673.98;102545;277;115294;-58
2023/04/15 02:55:37;;;;;;;;;;;;;;;9.53;84.25;99671.47;102552;278;97843;-57
2023/04/15 02:58:13;;;;;;;;;;;;;;;9.55;83.72;99668.61;102558;278;98234;-59
2023/04/15 03:00:49;;;;;;;;;;;;;;;9.55;83.85;99669.12;102550;278;121463;-56
2023/04/15 03:03:26;;;;;;;;;;;;;;;9.56;84.34;99670.23;102560;278;105922;-56
2023/04/15 03:06:05;;;;;;;;;;;;;;;9.55;84.48;99668.00;102581;277;113282;-56
2023/04/15 03:08:43;;;;;;;;;;;;;;;9.53;84.70;99669.93;102568;277;96135;-56
2023/04/15 03:11:17;;;;;;;;;;;;;;;9.55;84.41;99672.59;102632;277;98524;-58
2023/04/15 03:13:53;;;;;;;;;;;;;;;9.52;84.54;99669.89;102580;278;119968;-58
2023/04/15 03:16:31;;;;;;;;;;;;;;;9.51;84.66;99673.25;102588;277;104788;-56
2023/04/15 03:19:07;;;;;;;;;;;;;;;9.45;85.36;99676.29;102548;277;115496;-55
2023/04/15 03:21:45;;;;;;;;;;;;;;;9.46;84.87;99673.30;102625;278;95796;-58
2023/04/15 03:24:21;;;;;;;;;;;;;;;9.49;84.59;99678.00;102560;277;97705;-57
2023/04/15 03:26:58;;;;;;;;;;;;;;;9.51;84.53;99670.27;102552;278;122380;-57
2023/04/15 03:29:35;;;;;;;;;;;;;;;9.53;84.70;99674.58;102558;278;104626;-58
2023/04/15 03:32:13;;;;;;;;;;;;;;;9.51;84.73;99671.78;102553;277;114817;-56
2023/04/15 03:34:48;;;;;;;;;;;;;;;9.53;84.58;99671.67;102536;278;97084;-56
2023/04/15 03:37:25;;;;;;;;;;;;;;;9.53;84.86;99672.55;102601;278;96827;-58
2023/04/15 03:39:58;;;;;;;;;;;;;;;9.51;84.88;99676.06;102580;278;120837;-59
2023/04/15 03:42:33;;;;;;;;;;;;;;;9.52;84.72;99678.98;102556;278;105500;-60
2023/04/15 03:45:10;;;;;;;;;;;;;;;9.57;85.07;99676.34;102687;277;114550;-58
2023/04/15 03:47:49;;;;;;;;;;;;;;;9.56;85.01;99677.91;102741;277;97330;-59
2023/04/15 03:50:24;;;;;;;;;;;;;;;9.55;85.07;99675.63;102704;277;97999;-57
2023/04/15 03:53:00;;;;;;;;;;;;;;;9.49;85.57;99683.34;102595;278;120086;-56
2023/04/15 03:55:36;;;;;;;;;;;;;;;9.45;85.25;99682.09;102549;278;104934;-57
2023/04/15 03:58:11;;;;;;;;;;;;;;;9.45;85.26;99681.46;102584;278;115350;-58
2023/04/15 04:00:48;;;;;;;;;;;;;;;9.47;85.44;99685.38;102552;278;95905;-55
2023/04/15 04:03:21;;;;;;;;;;;;;;;9.53;85.41;99684.73;102668;277;98155;-55
2023/04/15 04:06:01;;;;;;;;;;;;;;;9.55;85.27;99685.70;102555;277;121649;-58
2023/04/15 04:08:38;;;;;;;;;;;;;;;9.56;85.11;99687.78;102601;277;106282;-58
2023/04/15 04:11:21;;;;;;;;;;;;;;;9.58;85.10;99686.63;102622;277;114876;-58
2023/04/15 04:13:59;;;;;;;;;;;;;;;9.62;85.00;99679.52;102714;277;96828;-57
2023/04/15 04:16:44;;;;;;;;;;;;;;;9.61;85.00;99682.91;102700;277;97977;-60
2023/04/15 04:19:19;;;;;;;;;;;;;;;9.59;85.49;99685.14;102731;277;119216;-60
2023/04/15 04:21:57;;;;;;;;;;;;;;;9.60;85.34;99684.40;102620;277;104954;-60
2023/04/15 04:24:38;;;;;;;;;;;;;;;9.60;85.45;99687.72;102728;265;113728;-57
2023/04/15 04:27:17;;;;;;;;;;;;;;;9.61;85.47;99684.56;102752;277;96708;-57
2023/04/15 04:29:53;;;;;;;;;;;;;;;9.61;85.66;99680.34;102738;277;97168;-57
2023/04/15 04:32:28;;;;;;;;;;;;;;;9.66;85.54;99681.68;102744;277;120373;-61
2023/04/15 04:35:04;;;;;;;;;;;;;;;9.67;85.46;99681.40;102737;277;106094;-61
2023/04/15 04:37:39;;;;;;;;;;;;;;;9.69;85.46;99684.32;102779;277;114495;-61
2023/04/15 04:40:17;;;;;;;;;;;;;;;9.69;85.36;99687.06;102672;277;96167;-61
2023/04/15 04:42:53;;;;;;;;;;;;;;;9.66;85.75;99683.06;102541;277;97941;-60
2023/04/15 04:45:31;;;;;;;;;;;;;;;9.60;85.76;99689.26;102561;277;120131;-58
2023/04/15 04:48:09;;;;;;;;;;;;;;;9.59;85.90;99686.55;102594;277;104430;-57
2023/04/15 04:50:45;;;;;;;;;;;;;;;9.54;86.57;99689.52;102572;277;113654;-61
2023/04/15 04:53:23;;;;;;;;;;;;;;;9.52;86.79;99687.23;102774;266;96627;-61
2023/04/15 04:55:58;;;;;;;;;;;;;;;9.55;86.47;99687.83;102779;277;95495;-57
2023/04/15 04:58:40;;;;;;;;;;;;;;;9.56;86.40;99689.32;102721;277;120767;-57
2023/04/15 05:01:17;;;;;;;;;;;;;;;9.60;86.29;99685.45;102702;277;105115;-56
2023/04/15 05:03:55;;;;;;;;;;;;;;;9.57;86.73;99688.20;102739;277;113495;-57
2023/04/15 05:06:31;;;;;;;;;;;;;;;9.57;86.64;99689.86;102726;277;95439;-56
2023/04/15 05:09:09;;;;;;;;;;;;;;;9.58;86.65;99692.06;102765;277;96392;-58
2023/04/15 05:11:45;;;;;;;;;;;;;;;9.63;86.47;99692.38;102679;277;120257;-57
2023/04/15 05:14:25;;;;;;;;;;;;;;;9.59;86.75;99693.42;102614;278;104824;-58
2023/04/15 05:17:06;;;;;;;;;;;;;;;9.63;86.48;99691.23;102610;278;113330;-58
2023/04/15 05:19:47;;;;;;;;;;;;;;;9.63;86.68;99694.20;102573;278;97335;-58
2023/04/15 05:22:28;;;;;;;;;;;;;;;9.61;86.88;99690.95;102671;277;97696;-59
2023/04/15 05:25:05;;;;;;;;;;;;;;;9.59;87.04;99693.43;102675;277;119281;-58
2023/04/15 05:27:39;;;;;;;;;;;;;;;9.62;86.83;99696.69;102728;277;105129;-59
2023/04/15 05:30:13;;;;;;;;;;;;;;;9.64;87.03;99688.61;102650;277;114526;-58
2023/04/15 05:32:52;;;;;;;;;;;;;;;9.66;86.81;99688.08;102697;277;94258;-59
2023/04/15 05:35:30;;;;;;;;;;;;;;;9.62;87.69;99697.51;102669;277;98534;-58
2023/04/15 05:38:14;;;;;;;;;;;;;;;9.59;87.30;99691.54;102640;277;121428;-59
2023/04/15 05:40:57;;;;;;;;;;;;;;;9.69;86.91;99693.16;102632;278;104594;-59
2023/04/15 05:43:29;;;;;;;;;;;;;;;9.69;87.32;99697.19;102667;277;113879;-58
2023/04/15 05:46:07;;;;;;;;;;;;;;;9.70;87.17;99694.61;102722;277;95706;-56
2023/04/15 05:48:41;;;;;;;;;;;;;;;9.74;87.01;99699.44;102676;278;97867;-60
2023/04/15 05:51:16;;;;;;;;;;;;;;;9.70;87.70;99703.25;102652;278;119315;-59
2023/04/15 05:53:50;;;;;;;;;;;;;;;9.71;87.32;99696.48;102672;277;104536;-59
2023/04/15 05:56:29;;;;;;;;;;;;;;;9.75;87.27;99698.24;102666;277;115160;-60
2023/04/15 05:59:05;;;;;;;;;;;;;;;9.80;87.09;99702.42;102620;278;95942;-60
2023/04/15 06:01:44;;;;;;;;;;;;;;;9.86;87.07;99700.16;102695;278;97897;-61
2023/04/15 06:04:20;;;;;;;;;;;;;;;9.88;87.02;99700.75;102635;277;121085;-60
2023/04/15 06:06:54;;;;;;;;;;;;;;;9.92;86.97;99697.36;102737;277;105884;-56
2023/04/15 06:09:32;;;;;;;;;;;;;;;9.93;87.19;99697.27;102722;277;114301;-57
2023/04/15 06:12:11;;;;;;;;;;;;;;;9.86;87.31;99700.87;102717;277;96906;-57
2023/04/15 06:14:47;;;;;;;;;;;;;;;9.84;87.15;99704.38;102664;278;96506;-57
2023/04/15 06:17:23;;;;;;;;;;;;;;;9.90;87.43;99702.17;102780;277;119945;-60
2023/04/15 06:20:00;;;;;;;;;;;;;;;9.81;87.60;99705.77;102731;277;104315;-61
2023/04/15 06:22:39;;;;;;;;;;;;;;;9.78;88.05;99706.11;102724;277;112223;-56
2023/04/15 06:25:12;;;;;;;;;;;;;;;9.74;88.24;99708.04;102675;277;95058;-57
2023/04/15 06:27:47;;;;;;;;;;;;;;;9.68;87.94;99712.65;102729;277;98189;-57
2023/04/15 06:30:21;;;;;;;;;;;;;;;9.71;88.00;99713.12;102738;277;119581;-57
2023/04/15 06:32:58;;;;;;;;;;;;;;;9.70;88.46;99714.27;102695;277;105800;-58
2023/04/15 06:35:40;;;;;;;;;;;;;;;9.69;88.39;99719.50;102720;277;114860;-60
2023/04/15 06:38:15;;;;;;;;;;;;;;;9.68;88.16;99722.36;102730;277;96754;-58
2023/04/15 06:40:53;;;;;;;;;;;;;;;9.70;88.35;99717.42;102752;277;97573;-59
2023/04/15 06:43:34;;;;;;;;;;;;;;;9.71;88.46;99722.53;102682;277;120936;-61
2023/04/15 06:46:11;;;;;;;;;;;;;;;9.71;88.32;99722.25;102713;277;105756;-56
2023/04/15 06:48:48;;;;;;;;;;;;;;;9.76;88.30;99724.06;102703;277;114751;-57
2023/04/15 06:51:22;;;;;;;;;;;;;;;9.76;88.35;99729.90;102563;277;97098;-56
2023/04/15 06:54:04;;;;;;;;;;;;;;;9.75;88.28;99729.70;102564;278;97451;-56
2023/04/15 06:56:44;;;;;;;;;;;;;;;9.68;88.42;99731.94;102653;277;120354;-60
2023/04/15 06:59:21;;;;;;;;;;;;;;;9.68;88.60;99733.31;102700;277;106230;-60
2023/04/15 07:02:01;;;;;;;;;;;;;;;9.71;88.80;99735.58;102778;277;113730;-57
2023/04/15 07:04:43;;;;;;;;;;;;;;;9.76;88.51;99733.35;102634;277;97136;-56
2023/04/15 07:07:21;;;;;;;;;;;;;;;9.75;89.14;99739.20;102606;278;97074;-57
2023/04/15 07:10:00;;;;;;;;;;;;;;;9.76;88.75;99740.13;102564;278;119260;-58
2023/04/15 07:12:36;;;;;;;;;;;;;;;9.86;88.44;99743.16;102611;277;104634;-57
2023/04/15 07:15:12;;;;;;;;;;;;;;;9.88;88.56;99747.77;102714;277;114993;-57
2023/04/15 07:17:47;;;;;;;;;;;;;;;9.80;88.78;99748.60;102738;277;96498;-57
2023/04/15 07:20:30;;;;;;;;;;;;;;;9.80;88.85;99746.61;102711;277;97564;-57
2023/04/15 07:23:08;;;;;;;;;;;;;;;9.79;88.83;99746.04;102791;277;119297;-61
2023/04/15 07:25:42;;;;;;;;;;;;;;;9.76;88.91;99751.16;102630;278;105695;-58
2023/04/15 07:28:19;;;;;;;;;;;;;;;9.81;88.58;99745.83;102511;278;113436;-57
2023/04/15 07:30:53;;;;;;;;;;;;;;;9.83;88.60;99748.77;102547;278;96535;-57
2023/04/15 07:33:30;;;;;;;;;;;;;;;9.88;88.89;99750.26;102743;277;97249;-57
2023/04/15 07:36:05;;;;;;;;;;;;;;;9.93;88.70;99749.95;102726;277;120825;-57
2023/04/15 07:38:41;;;;;;;;;;;;;;;9.89;88.87;99752.45;102632;277;105464;-57
2023/04/15 07:41:16;;;;;;;;;;;;;;;9.87;88.78;99753.87;102695;277;114153;-58
2023/04/15 07:44:07;;;;;;;;;;;;;;;9.91;89.02;99750.02;102614;277;96282;-60
2023/04/15 07:46:46;;;;;;;;;;;;;;;9.95;88.56;99749.04;102574;277;97723;-61
2023/04/15 07:49:20;;;;;;;;;;;;;;;9.93;88.78;99752.08;102634;277;120454;-61
2023/04/15 07:51:58;;;;;;;;;;;;;;;10.00;88.42;99744.46;102608;278;105717;-58
2023/04/15 07:54:34;;;;;;;;;;;;;;;10.00;88.64;99748.83;102552;278;115258;-58
2023/04/15 07:57:10;;;;;;;;;;;;;;;9.99;88.52;99750.23;102602;277;96082;-60
2023/04/15 07:59:52;;;;;;;;;;;;;;;9.97;88.37;99743.86;102729;277;98128;-61
2023/04/15 08:02:31;;;;;;;;;;;;;;;10.02;88.47;99744.09;102761;265;121126;-57
2023/04/15 08:05:08;;;;;;;;;;;;;;;10.02;88.55;99745.55;102754;276;106016;-57
2023/04/15 08:07:45;;;;;;;;;;;;;;;10.02;88.61;99746.42;102687;276;114571;-57
2023/04/15 08:10:33;;;;;;;;;;;;;;;9.97;88.47;99746.40;102545;278;97343;-58
2023/04/15 08:13:12;;;;;;;;;;;;;;;10.01;88.27;99747.58;102571;277;98002;-59
2023/04/15 08:15:55;;;;;;;;;;;;;;;10.03;88.26;99740.33;102730;277;121128;-57
2023/04/15 08:18:37;;;;;;;;;;;;;;;10.07;88.22;99741.12;102680;276;105102;-57
2023/04/15 08:21:13;;;;;;;;;;;;;;;10.07;88.47;99744.15;102695;277;115082;-60
2023/04/15 08:23:49;;;;;;;;;;;;;;;10.05;88.57;99741.03;102719;276;97043;-60
2023/04/15 08:26:26;;;;;;;;;;;;;;;10.11;88.31;99742.05;102642;277;97336;-58
2023/04/15 08:29:09;;;;;;;;;;;;;;;10.17;88.23;99746.16;102569;277;119973;-60
2023/04/15 08:31:46;;;;;;;;;;;;;;;10.16;87.88;99746.75;102557;277;106100;-56
2023/04/15 08:34:18;;;;;;;;;;;;;;;10.15;88.30;99746.95;102610;277;114789;-57
2023/04/15 08:36:55;;;;;;;;;;;;;;;10.10;88.13;99745.00;102647;276;96808;-58
2023/04/15 08:39:34;;;;;;;;;;;;;;;10.05;88.23;99747.63;102520;278;97433;-58
2023/04/15 08:42:12;;;;;;;;;;;;;;;10.00;88.40;99747.16;102746;277;120605;-60
2023/04/15 08:44:51;;;;;;;;;;;;;;;10.10;88.42;99746.41;102693;277;105987;-60
2023/04/15 08:47:28;;;;;;;;;;;;;;;10.15;88.53;99744.83;102622;277;114190;-56
2023/04/15 08:50:06;;;;;;;;;;;;;;;10.17;88.42;99743.98;102683;276;96215;-57
2023/04/15 08:52:43;;;;;;;;;;;;;;;10.28;88.43;99745.58;102649;276;97564;-56
2023/04/15 08:55:22;;;;;;;;;;;;;;;10.39;88.42;99747.11;102696;277;121485;-57
2023/04/15 08:58:00;;;;;;;;;;;;;;;10.43;88.27;99748.11;102731;276;106121;-61
2023/04/15 09:00:32;;;;;;;;;;;;;;;10.43;88.55;99754.69;102813;276;114099;-61
2023/04/15 09:03:09;;;;;;;;;;;;;;;10.41;88.27;99752.09;102699;277;96941;-60
2023/04/15 09:05:47;;;;;;;;;;;;;;;10.49;88.10;99749.88;102707;277;97365;-55
2023/04/15 09:08:24;;;;;;;;;;;;;;;10.45;88.33;99755.42;102621;276;120569;-59
2023/04/15 09:10:58;;;;;;;;;;;;;;;10.50;87.96;99753.48;102744;276;105686;-61
2023/04/15 09:13:48;;;;;;;;;;;;;;;10.61;88.04;99750.39;102630;277;113143;-60
2023/04/15 09:16:30;;;;;;;;;;;;;;;10.75;88.16;99753.78;102660;276;96023;-60
2023/04/15 09:19:20;;;;;;;;;;;;;;;10.81;87.96;99751.34;102638;277;98730;-60
2023/04/15 09:21:58;;;;;;;;;;;;;;;10.88;87.79;99755.73;102768;277;121278;-59
2023/04/15 09:24:42;;;;;;;;;;;;;;;10.81;87.68;99753.54;102685;277;104997;-55
2023/04/15 09:27:21;;;;;;;;;;;;;;;10.80;87.73;99752.41;102078;277;841631;-57
2023/04/15 09:29:59;;;;;;;;;;;;;;;10.79;87.79;99753.79;102557;277;95050;-57
2023/04/15 09:32:35;;;;;;;;;;;;;;;10.78;87.80;99752.66;102654;277;96734;-59
2023/04/15 09:35:15;;;;;;;;;;;;;;;10.70;87.62;99759.63;102722;277;120940;-60
2023/04/15 09:37:53;;;;;;;;;;;;;;;10.64;87.69;99757.21;102637;277;105724;-59
2023/04/15 09:40:44;;;;;;;;;;;;;;;10.59;87.75;99761.27;102724;277;114201;-59
2023/04/15 09:43:20;;;;;;;;;;;;;;;10.59;88.05;99759.83;102696;277;96190;-58
2023/04/15 09:45:54;;;;;;;;;;;;;;;10.65;87.95;99760.17;102756;277;97482;-57
2023/04/15 09:48:34;;;;;;;;;;;;;;;10.67;87.96;99763.98;102715;277;120318;-57
2023/04/15 09:51:08;;;;;;;;;;;;;;;10.67;87.97;99764.48;102739;277;105578;-57
2023/04/15 09:53:55;;;;;;;;;;;;;;;10.77;87.86;99765.17;102720;277;115094;-56
2023/04/15 09:56:36;;;;;;;;;;;;;;;10.81;87.87;99767.75;102735;277;96838;-60
2023/04/15 09:59:15;;;;;;;;;;;;;;;10.80;88.01;99771.49;102757;277;95077;-60
2023/04/15 10:01:53;;;;;;;;;;;;;;;10.83;87.90;99775.36;102736;277;120632;-58
2023/04/15 10:04:31;;;;;;;;;;;;;;;10.73;88.00;99772.36;102730;277;105561;-56
2023/04/15 10:07:04;;;;;;;;;;;;;;;10.74;87.75;99778.42;102761;277;113263;-59
2023/04/15 10:09:41;;;;;;;;;;;;;;;10.76;87.99;99773.52;102735;277;94778;-58
2023/04/15 10:12:19;;;;;;;;;;;;;;;10.85;87.90;99771.91;102764;277;96351;-57
2023/04/15 10:15:01;;;;;;;;;;;;;;;10.90;88.07;99772.80;102689;277;121109;-59
2023/04/15 10:17:35;;;;;;;;;;;;;;;10.93;88.00;99773.62;102784;277;104868;-60
2023/04/15 10:20:13;;;;;;;;;;;;;;;11.00;87.88;99769.23;102686;277;115231;-60
2023/04/15 10:22:53;;;;;;;;;;;;;;;11.04;87.80;99772.09;102772;265;96809;-56
2023/04/15 10:25:28;;;;;;;;;;;;;;;11.11;87.77;99770.46;102727;277;97708;-57
2023/04/15 10:28:01;;;;;;;;;;;;;;;11.18;87.54;99768.84;102717;277;118200;-60
2023/04/15 10:30:40;;;;;;;;;;;;;;;11.27;87.54;99769.09;102772;277;104251;-57
2023/04/15 10:33:21;;;;;;;;;;;;;;;11.27;87.62;99770.71;102734;277;112115;-58
2023/04/15 10:35:57;;;;;;;;;;;;;;;11.23;87.42;99769.30;102605;277;94153;-59
2023/04/15 10:38:42;;;;;;;;;;;;;;;11.24;87.40;99772.42;102562;277;98949;-59
2023/04/15 10:41:23;;;;;;;;;;;;;;;11.21;87.16;99767.48;102555;277;120430;-55
2023/04/15 10:44:03;;;;;;;;;;;;;;;11.26;87.35;99773.59;102530;279;105214;-57
2023/04/15 10:46:54;;;;;;;;;;;;;;;11.20;87.44;99771.89;102565;277;114352;-59
2023/04/15 10:49:43;;;;;;;;;;;;;;;11.19;87.58;99769.19;102539;277;96520;-57
2023/04/15 10:52:28;;;;;;;;;;;;;;;11.15;87.30;99766.22;102725;277;96706;-58
2023/04/15 10:55:21;;;;;;;;;;;;;;;11.21;87.37;99769.23;102551;278;120632;-57
2023/04/15 10:58:02;;;;;;;;;;;;;;;11.25;87.32;99769.73;102575;277;105733;-56
2023/04/15 11:00:40;;;;;;;;;;;;;;;11.25;87.13;99771.21;102521;277;112597;-59
2023/04/15 11:03:42;;;;;;;;;;;;;;;11.18;87.43;99772.25;102494;277;95693;-59
2023/04/15 11:06:21;;;;;;;;;;;;;;;11.19;87.33;99770.93;102728;277;99226;-59
2023/04/15 11:09:08;;;;;;;;;;;;;;;11.20;87.66;99773.67;102698;277;121535;-60
2023/04/15 11:12:10;;;;;;;;;;;;;;;11.17;87.43;99772.73;102724;277;106238;-60
2023/04/15 11:14:52;;;;;;;;;;;;;;;11.17;87.42;99771.59;102643;277;114658;-54
2023/04/15 11:17:36;;;;;;;;;;;;;;;11.21;87.27;99768.31;102657;277;96864;-57
2023/04/15 11:20:16;;;;;;;;;;;;;;;11.20;87.40;99764.11;102749;277;96119;-56
2023/04/15 11:22:58;;;;;;;;;;;;;;;11.20;87.12;99768.11;102746;277;118941;-59
2023/04/15 11:25:37;;;;;;;;;;;;;;;11.22;87.23;99767.68;102714;277;105743;-57
2023/04/15 11:28:16;;;;;;;;;;;;;;;11.17;87.36;99766.56;102674;277;114660;-56
2023/04/15 11:31:11;;;;;;;;;;;;;;;11.09;87.35;99772.02;102676;277;94924;-57
2023/04/15 11:33:58;;;;;;;;;;;;;;;11.06;87.31;99770.11;102645;277;97222;-57
2023/04/15 11:36:34;;;;;;;;;;;;;;;11.03;87.37;99778.61;102763;277;119631;-60
2023/04/15 11:39:13;;;;;;;;;;;;;;;11.03;87.13;99779.83;102678;277;105125;-60
2023/04/15 11:41:53;;;;;;;;;;;;;;;10.95;87.75;99777.09;102703;277;114647;-60
2023/04/15 11:44:32;;;;;;;;;;;;;;;10.92;87.70;99775.58;102695;277;97033;-61
2023/04/15 11:47:23;;;;;;;;;;;;;;;10.94;87.71;99777.33;102696;277;96792;-62
2023/04/15 11:50:16;;;;;;;;;;;;;;;11.06;87.47;99776.02;102723;277;120329;-63
2023/04/15 11:52:57;;;;;;;;;;;;;;;11.17;87.37;99777.66;102717;277;106524;-62
2023/04/15 11:55:43;;;;;;;;;;;;;;;11.12;87.55;99776.70;102715;277;114647;-59
2023/04/15 11:58:19;;;;;;;;;;;;;;;11.08;87.65;99784.48;102750;277;96401;-60
2023/04/15 12:00:59;;;;;;;;;;;;;;;11.10;87.68;99783.41;102721;277;97512;-57
2023/04/15 12:03:38;;;;;;;;;;;;;;;11.03;87.74;99784.61;102723;277;119500;-57
2023/04/15 12:06:19;;;;;;;;;;;;;;;11.09;87.56;99786.94;102792;277;104330;-57
2023/04/15 12:09:00;;;;;;;;;;;;;;;11.14;87.27;99787.23;102706;277;114422;-57
2023/04/15 12:11:36;;;;;;;;;;;;;;;11.27;86.96;99793.27;102755;277;95073;-59
2023/04/15 12:14:23;;;;;;;;;;;;;;;11.38;87.07;99795.17;102739;277;97702;-59
2023/04/15 12:16:58;;;;;;;;;;;;;;;11.55;87.15;99798.28;102740;277;121113;-59
2023/04/15 12:19:39;;;;;;;;;;;;;;;11.80;87.10;99803.05;102740;277;105696;-57
2023/04/15 12:22:15;;;;;;;;;;;;;;;12.12;86.87;99804.04;102661;277;114714;-57
2023/04/15 12:25:01;;;;;;;;;;;;;;;12.37;86.95;99807.31;102695;277;95735;-56
2023/04/15 12:27:37;;;;;;;;;;;;;;;12.60;86.47;99811.86;102755;277;98813;-56
2023/04/15 12:30:13;;;;;;;;;;;;;;;12.71;85.94;99808.09;102734;277;121685;-58
2023/04/15 12:32:53;;;;;;;;;;;;;;;12.77;85.65;99807.95;102771;277;105787;-58
2023/04/15 12:35:31;;;;;;;;;;;;;;;12.75;85.14;99816.12;102753;277;114680;-57
2023/04/15 12:41:23;;;;;;;;;;;;;;;12.52;84.91;99824.25;102727;277;97216;-56
2023/04/15 12:44:02;;;;;;;;;;;;;;;12.51;84.74;99823.21;102717;277;120506;-56
2023/04/15 12:46:40;;;;;;;;;;;;;;;12.44;84.57;99828.20;102640;277;105291;-57
2023/04/15 12:49:19;;;;;;;;;;;;;;;12.32;84.19;99834.71;102667;277;113521;-59
2023/04/15 12:52:05;;;;;;;;;;;;;;;12.25;84.22;99836.98;102508;277;94747;-58
2023/04/15 12:54:42;;;;;;;;;;;;;;;12.26;84.35;99835.27;102723;277;96615;-58
2023/04/15 12:57:15;;;;;;;;;;;;;;;12.33;84.18;99835.79;102755;277;118825;-58
2023/04/15 12:59:50;;;;;;;;;;;;;;;12.37;84.31;99833.98;102748;277;103966;-58
2023/04/15 13:02:27;;;;;;;;;;;;;;;12.42;84.39;99836.39;102749;277;113803;-54
2023/04/15 13:05:06;;;;;;;;;;;;;;;12.60;84.17;99836.80;102744;277;95954;-53
2023/04/15 13:07:40;;;;;;;;;;;;;;;12.55;83.88;99839.36;102561;278;96970;-60
2023/04/15 13:10:13;;;;;;;;;;;;;;;12.51;83.75;99847.26;102730;277;118691;-57
2023/04/15 13:12:51;;;;;;;;;;;;;;;12.44;83.47;99845.42;102772;277;103486;-56
2023/04/15 13:15:25;;;;;;;;;;;;;;;12.42;83.63;99852.67;102687;277;113553;-56
2023/04/15 13:17:58;;;;;;;;;;;;;;;12.37;83.43;99854.07;102550;277;96465;-55
2023/04/15 13:20:34;;;;;;;;;;;;;;;12.39;83.22;99852.64;102744;277;97404;-56
2023/04/15 13:23:15;;;;;;;;;;;;;;;12.49;83.51;99852.06;102749;277;119739;-55
2023/04/15 13:25:53;;;;;;;;;;;;;;;12.62;83.32;99852.13;102744;277;105821;-57
2023/04/15 13:28:38;;;;;;;;;;;;;;;12.59;83.10;99864.15;102731;277;115169;-56
2023/04/15 13:31:13;;;;;;;;;;;;;;;12.58;82.90;99869.15;102746;277;94245;-57
2023/04/15 13:33:50;;;;;;;;;;;;;;;12.66;82.21;99875.99;102746;277;95298;-58
2023/04/15 13:36:28;;;;;;;;;;;;;;;12.74;82.27;99874.12;102727;277;121541;-54
2023/04/15 13:39:07;;;;;;;;;;;;;;;12.93;82.05;99876.20;102735;277;104083;-55
2023/04/15 13:41:43;;;;;;;;;;;;;;;12.95;81.92;99875.64;102750;277;112928;-57
2023/04/15 13:44:18;;;;;;;;;;;;;;;12.88;81.72;99877.14;102745;277;94753;-57